sensor_id;sensor_type;location;lat;lon;timestamp;pressure;altitude;pressure_sealevel;temperature;humidity
44697;BME280;57264;47.480;19.354;2023-12-22T00:01:07;96692.88;;;3.83;89.34
44697;BME280;57264;47.480;19.354;2023-12-22T00:03:32;96699.41;;;3.72;89.93
44697;BME280;57264;47.480;19.354;2023-12-22T00:05:58;96703.50;;;3.76;90.06
44697;BME280;57264;47.480;19.354;2023-12-22T00:08:23;96708.50;;;3.79;90.38
44697;BME280;57264;47.480;19.354;2023-12-22T00:10:49;96698.66;;;4.06;90.37
44697;BME280;57264;47.480;19.354;2023-12-22T00:13:15;96696.16;;;4.22;89.81
44697;BME280;57264;47.480;19.354;2023-12-22T00:15:41;96716.56;;;4.42;89.49
44697;BME280;57264;47.480;19.354;2023-12-22T00:18:08;96724.13;;;4.45;90.06
44697;BME280;57264;47.480;19.354;2023-12-22T00:20:33;96725.72;;;4.48;89.17
44697;BME280;57264;47.480;19.354;2023-12-22T00:22:59;96721.19;;;4.53;89.24
44697;BME280;57264;47.480;19.354;2023-12-22T00:25:25;96717.69;;;4.54;89.35
44697;BME280;57264;47.480;19.354;2023-12-22T00:27:51;96723.06;;;4.66;89.30
44697;BME280;57264;47.480;19.354;2023-12-22T00:30:16;96732.81;;;4.77;88.67
44697;BME280;57264;47.480;19.354;2023-12-22T00:32:42;96726.06;;;4.75;88.50
44697;BME280;57264;47.480;19.354;2023-12-22T00:35:08;96721.16;;;4.70;88.55
44697;BME280;57264;47.480;19.354;2023-12-22T00:37:33;96726.31;;;4.70;89.33
44697;BME280;57264;47.480;19.354;2023-12-22T00:39:59;96727.91;;;4.73;88.78
44697;BME280;57264;47.480;19.354;2023-12-22T00:42:24;96731.16;;;4.76;88.98
44697;BME280;57264;47.480;19.354;2023-12-22T00:44:51;96721.84;;;4.74;88.51
44697;BME280;57264;47.480;19.354;2023-12-22T00:47:17;96743.63;;;4.84;88.01
44697;BME280;57264;47.480;19.354;2023-12-22T00:49:43;96763.97;;;4.88;87.99
44697;BME280;57264;47.480;19.354;2023-12-22T00:52:09;96765.63;;;4.89;88.29
44697;BME280;57264;47.480;19.354;2023-12-22T00:54:34;96762.81;;;4.94;87.86
44697;BME280;57264;47.480;19.354;2023-12-22T00:57:00;96767.28;;;4.90;88.25
44697;BME280;57264;47.480;19.354;2023-12-22T00:59:25;96760.88;;;4.82;87.72
44697;BME280;57264;47.480;19.354;2023-12-22T01:04:25;96758.22;;;4.83;88.01
44697;BME280;57264;47.480;19.354;2023-12-22T01:06:50;96768.72;;;4.79;88.32
44697;BME280;57264;47.480;19.354;2023-12-22T01:09:16;96772.91;;;4.81;88.18
44697;BME280;57264;47.480;19.354;2023-12-22T01:11:42;96779.47;;;4.87;87.56
44697;BME280;57264;47.480;19.354;2023-12-22T01:14:07;96752.31;;;4.81;88.03
44697;BME280;57264;47.480;19.354;2023-12-22T01:16:33;96731.31;;;4.73;88.07
44697;BME280;57264;47.480;19.354;2023-12-22T01:18:59;96732.50;;;4.66;88.63
44697;BME280;57264;47.480;19.354;2023-12-22T01:21:24;96719.59;;;4.67;88.17
44697;BME280;57264;47.480;19.354;2023-12-22T01:23:50;96724.28;;;4.59;88.37
44697;BME280;57264;47.480;19.354;2023-12-22T01:26:15;96735.00;;;4.50;88.54
44697;BME280;57264;47.480;19.354;2023-12-22T01:28:41;96748.09;;;4.63;88.68
44697;BME280;57264;47.480;19.354;2023-12-22T01:31:06;96745.00;;;4.56;88.81
44697;BME280;57264;47.480;19.354;2023-12-22T01:33:32;96755.28;;;4.56;88.84
44697;BME280;57264;47.480;19.354;2023-12-22T01:35:57;96769.88;;;4.56;88.68
44697;BME280;57264;47.480;19.354;2023-12-22T01:38:23;96768.06;;;4.58;89.12
44697;BME280;57264;47.480;19.354;2023-12-22T01:40:48;96758.91;;;4.52;89.02
44697;BME280;57264;47.480;19.354;2023-12-22T01:43:14;96756.72;;;4.44;89.09
44697;BME280;57264;47.480;19.354;2023-12-22T01:45:40;96760.88;;;4.47;89.14
44697;BME280;57264;47.480;19.354;2023-12-22T01:48:09;96759.59;;;4.38;89.31
44697;BME280;57264;47.480;19.354;2023-12-22T01:50:35;96742.72;;;4.33;89.59
44697;BME280;57264;47.480;19.354;2023-12-22T01:53:02;96733.38;;;4.32;89.57
44697;BME280;57264;47.480;19.354;2023-12-22T01:55:28;96755.72;;;4.30;89.06
44697;BME280;57264;47.480;19.354;2023-12-22T01:57:55;96758.28;;;4.30;89.61
44697;BME280;57264;47.480;19.354;2023-12-22T02:00:21;96754.28;;;4.24;89.12
44697;BME280;57264;47.480;19.354;2023-12-22T02:02:48;96747.63;;;4.20;90.03
44697;BME280;57264;47.480;19.354;2023-12-22T02:05:14;96756.41;;;4.16;90.04
44697;BME280;57264;47.480;19.354;2023-12-22T02:07:42;96749.22;;;4.23;89.85
44697;BME280;57264;47.480;19.354;2023-12-22T02:10:09;96741.13;;;4.30;89.28
44697;BME280;57264;47.480;19.354;2023-12-22T02:12:36;96727.59;;;4.27;89.42
44697;BME280;57264;47.480;19.354;2023-12-22T02:15:02;96718.09;;;4.29;88.96
44697;BME280;57264;47.480;19.354;2023-12-22T02:17:54;96686.19;;;4.33;88.28
44697;BME280;57264;47.480;19.354;2023-12-22T02:20:23;96675.38;;;4.26;88.55
44697;BME280;57264;47.480;19.354;2023-12-22T02:22:53;96670.00;;;4.31;87.65
44697;BME280;57264;47.480;19.354;2023-12-22T02:25:18;96652.78;;;4.33;87.69
44697;BME280;57264;47.480;19.354;2023-12-22T02:27:50;96661.75;;;4.41;87.02
44697;BME280;57264;47.480;19.354;2023-12-22T02:33:05;96663.41;;;4.42;86.26
44697;BME280;57264;47.480;19.354;2023-12-22T02:35:34;96655.72;;;4.42;85.67
44697;BME280;57264;47.480;19.354;2023-12-22T02:38:02;96644.53;;;4.43;85.30
44697;BME280;57264;47.480;19.354;2023-12-22T02:40:29;96646.53;;;4.54;84.29
44697;BME280;57264;47.480;19.354;2023-12-22T02:42:55;96645.63;;;4.55;84.19
44697;BME280;57264;47.480;19.354;2023-12-22T02:45:21;96649.94;;;4.55;83.37
44697;BME280;57264;47.480;19.354;2023-12-22T02:47:46;96664.31;;;4.59;82.81
44697;BME280;57264;47.480;19.354;2023-12-22T02:50:14;96692.53;;;4.60;82.83
44697;BME280;57264;47.480;19.354;2023-12-22T02:52:40;96704.47;;;4.61;82.12
44697;BME280;57264;47.480;19.354;2023-12-22T02:55:06;96697.00;;;4.57;82.55
44697;BME280;57264;47.480;19.354;2023-12-22T02:57:32;96703.53;;;4.62;81.52
44697;BME280;57264;47.480;19.354;2023-12-22T02:59:57;96718.16;;;4.62;81.62
44697;BME280;57264;47.480;19.354;2023-12-22T03:02:23;96733.81;;;4.57;81.88
44697;BME280;57264;47.480;19.354;2023-12-22T03:04:49;96719.28;;;4.56;82.28
44697;BME280;57264;47.480;19.354;2023-12-22T03:07:14;96704.75;;;4.55;81.73
44697;BME280;57264;47.480;19.354;2023-12-22T03:09:41;96685.94;;;4.55;81.83
44697;BME280;57264;47.480;19.354;2023-12-22T03:12:08;96683.59;;;4.50;82.09
44697;BME280;57264;47.480;19.354;2023-12-22T03:14:34;96704.94;;;4.35;82.85
44697;BME280;57264;47.480;19.354;2023-12-22T03:17:04;96719.06;;;4.26;83.59
44697;BME280;57264;47.480;19.354;2023-12-22T03:19:30;96726.09;;;4.23;84.18
44697;BME280;57264;47.480;19.354;2023-12-22T03:21:56;96723.38;;;4.26;83.94
44697;BME280;57264;47.480;19.354;2023-12-22T03:24:23;96728.22;;;4.32;84.19
44697;BME280;57264;47.480;19.354;2023-12-22T03:26:49;96744.53;;;4.31;84.73
44697;BME280;57264;47.480;19.354;2023-12-22T03:29:15;96743.66;;;4.32;84.69
44697;BME280;57264;47.480;19.354;2023-12-22T03:31:40;96735.41;;;4.25;84.92
44697;BME280;57264;47.480;19.354;2023-12-22T03:34:06;96731.84;;;4.28;85.28
44697;BME280;57264;47.480;19.354;2023-12-22T03:36:32;96739.47;;;4.29;85.40
44697;BME280;57264;47.480;19.354;2023-12-22T03:38:57;96749.63;;;4.32;85.60
44697;BME280;57264;47.480;19.354;2023-12-22T03:41:23;96745.28;;;4.50;84.51
44697;BME280;57264;47.480;19.354;2023-12-22T03:43:49;96789.59;;;4.55;84.39
44697;BME280;57264;47.480;19.354;2023-12-22T03:46:14;96783.09;;;4.65;84.40
44697;BME280;57264;47.480;19.354;2023-12-22T03:48:40;96790.91;;;4.64;84.52
44697;BME280;57264;47.480;19.354;2023-12-22T03:51:06;96790.22;;;4.60;85.45
44697;BME280;57264;47.480;19.354;2023-12-22T03:53:31;96765.72;;;4.53;85.27
44697;BME280;57264;47.480;19.354;2023-12-22T03:55:57;96776.47;;;4.61;84.26
44697;BME280;57264;47.480;19.354;2023-12-22T03:58:22;96769.94;;;4.54;84.82
44697;BME280;57264;47.480;19.354;2023-12-22T04:00:48;96770.78;;;4.55;84.92
44697;BME280;57264;47.480;19.354;2023-12-22T04:03:14;96783.13;;;4.48;85.10
44697;BME280;57264;47.480;19.354;2023-12-22T04:05:39;96780.78;;;4.43;84.84
44697;BME280;57264;47.480;19.354;2023-12-22T04:08:06;96775.31;;;4.50;85.09
44697;BME280;57264;47.480;19.354;2023-12-22T04:10:31;96778.72;;;4.50;84.76
44697;BME280;57264;47.480;19.354;2023-12-22T04:12:57;96777.16;;;4.48;83.85
44697;BME280;57264;47.480;19.354;2023-12-22T04:15:23;96777.44;;;4.41;82.86
44697;BME280;57264;47.480;19.354;2023-12-22T04:17:48;96781.56;;;4.27;82.35
44697;BME280;57264;47.480;19.354;2023-12-22T04:20:15;96779.66;;;4.13;81.91
44697;BME280;57264;47.480;19.354;2023-12-22T04:22:41;96768.00;;;4.06;80.56
44697;BME280;57264;47.480;19.354;2023-12-22T04:25:07;96779.47;;;3.99;79.25
44697;BME280;57264;47.480;19.354;2023-12-22T04:27:34;96794.97;;;3.97;78.55
44697;BME280;57264;47.480;19.354;2023-12-22T04:30:00;96807.50;;;4.03;77.88
44697;BME280;57264;47.480;19.354;2023-12-22T04:32:25;96790.56;;;3.99;76.71
44697;BME280;57264;47.480;19.354;2023-12-22T04:34:51;96793.78;;;4.04;75.71
44697;BME280;57264;47.480;19.354;2023-12-22T04:37:17;96794.81;;;4.00;75.74
44697;BME280;57264;47.480;19.354;2023-12-22T04:39:42;96806.03;;;4.16;75.07
44697;BME280;57264;47.480;19.354;2023-12-22T04:42:08;96848.19;;;4.12;77.56
44697;BME280;57264;47.480;19.354;2023-12-22T04:44:33;96851.31;;;3.81;80.00
44697;BME280;57264;47.480;19.354;2023-12-22T04:47:00;96870.81;;;3.66;80.91
44697;BME280;57264;47.480;19.354;2023-12-22T04:49:26;96840.44;;;3.16;83.04
44697;BME280;57264;47.480;19.354;2023-12-22T04:51:52;96815.13;;;3.09;84.60
44697;BME280;57264;47.480;19.354;2023-12-22T04:54:17;96817.91;;;3.04;84.49
44697;BME280;57264;47.480;19.354;2023-12-22T04:56:43;96818.41;;;2.92;84.16
44697;BME280;57264;47.480;19.354;2023-12-22T04:59:08;96825.19;;;2.72;84.80
44697;BME280;57264;47.480;19.354;2023-12-22T05:01:34;96808.59;;;2.61;85.06
44697;BME280;57264;47.480;19.354;2023-12-22T05:04:00;96814.03;;;2.53;85.21
44697;BME280;57264;47.480;19.354;2023-12-22T05:06:27;96826.84;;;2.53;84.57
44697;BME280;57264;47.480;19.354;2023-12-22T05:08:55;96822.09;;;2.44;84.49
44697;BME280;57264;47.480;19.354;2023-12-22T05:11:22;96822.28;;;2.39;84.26
44697;BME280;57264;47.480;19.354;2023-12-22T05:13:48;96832.16;;;2.49;82.65
44697;BME280;57264;47.480;19.354;2023-12-22T05:16:14;96828.66;;;2.51;82.00
44697;BME280;57264;47.480;19.354;2023-12-22T05:18:40;96831.41;;;2.46;81.33
44697;BME280;57264;47.480;19.354;2023-12-22T05:21:05;96839.00;;;2.48;80.76
44697;BME280;57264;47.480;19.354;2023-12-22T05:23:31;96839.84;;;2.49;79.98
44697;BME280;57264;47.480;19.354;2023-12-22T05:25:58;96845.94;;;2.46;79.75
44697;BME280;57264;47.480;19.354;2023-12-22T05:28:23;96838.81;;;2.53;78.99
44697;BME280;57264;47.480;19.354;2023-12-22T05:30:49;96843.31;;;2.47;79.05
44697;BME280;57264;47.480;19.354;2023-12-22T05:33:14;96837.09;;;2.53;78.19
44697;BME280;57264;47.480;19.354;2023-12-22T05:35:40;96845.56;;;2.55;77.48
44697;BME280;57264;47.480;19.354;2023-12-22T05:38:05;96846.50;;;2.53;77.30
44697;BME280;57264;47.480;19.354;2023-12-22T05:40:31;96852.31;;;2.58;76.75
44697;BME280;57264;47.480;19.354;2023-12-22T05:42:57;96860.09;;;2.55;77.07
44697;BME280;57264;47.480;19.354;2023-12-22T05:45:22;96858.19;;;2.60;75.98
44697;BME280;57264;47.480;19.354;2023-12-22T05:47:50;96863.31;;;2.60;76.02
44697;BME280;57264;47.480;19.354;2023-12-22T05:50:16;96871.00;;;2.60;76.29
44697;BME280;57264;47.480;19.354;2023-12-22T05:52:42;96869.81;;;2.46;77.44
44697;BME280;57264;47.480;19.354;2023-12-22T05:55:10;96881.56;;;2.30;78.02
44697;BME280;57264;47.480;19.354;2023-12-22T05:57:36;96889.47;;;2.24;78.67
44697;BME280;57264;47.480;19.354;2023-12-22T06:00:02;96899.91;;;2.19;78.66
44697;BME280;57264;47.480;19.354;2023-12-22T06:02:30;96896.78;;;2.11;79.28
44697;BME280;57264;47.480;19.354;2023-12-22T06:04:55;96898.41;;;2.14;78.99
44697;BME280;57264;47.480;19.354;2023-12-22T06:07:21;96904.13;;;2.20;79.09
44697;BME280;57264;47.480;19.354;2023-12-22T06:09:46;96898.44;;;2.12;79.48
44697;BME280;57264;47.480;19.354;2023-12-22T06:12:12;96910.44;;;2.12;79.57
44697;BME280;57264;47.480;19.354;2023-12-22T06:14:37;96921.47;;;2.14;79.26
44697;BME280;57264;47.480;19.354;2023-12-22T06:17:03;96934.31;;;2.12;79.66
44697;BME280;57264;47.480;19.354;2023-12-22T06:19:29;96931.16;;;2.28;78.16
44697;BME280;57264;47.480;19.354;2023-12-22T06:21:56;96949.59;;;2.37;77.50
44697;BME280;57264;47.480;19.354;2023-12-22T06:24:25;96939.03;;;2.45;76.93
44697;BME280;57264;47.480;19.354;2023-12-22T06:26:51;96956.50;;;2.35;76.99
44697;BME280;57264;47.480;19.354;2023-12-22T06:29:17;96967.59;;;2.36;77.09
44697;BME280;57264;47.480;19.354;2023-12-22T06:31:42;96981.41;;;2.32;77.35
44697;BME280;57264;47.480;19.354;2023-12-22T06:34:08;96990.75;;;2.33;77.62
44697;BME280;57264;47.480;19.354;2023-12-22T06:36:33;96989.25;;;2.27;77.39
44697;BME280;57264;47.480;19.354;2023-12-22T06:38:59;97004.63;;;2.27;76.78
44697;BME280;57264;47.480;19.354;2023-12-22T06:41:29;97002.78;;;2.31;76.66
44697;BME280;57264;47.480;19.354;2023-12-22T06:43:56;97023.22;;;2.32;76.29
44697;BME280;57264;47.480;19.354;2023-12-22T06:46:23;97022.72;;;2.46;75.48
44697;BME280;57264;47.480;19.354;2023-12-22T06:48:53;97020.16;;;2.46;75.33
44697;BME280;57264;47.480;19.354;2023-12-22T06:51:27;97023.00;;;2.38;75.32
44697;BME280;57264;47.480;19.354;2023-12-22T06:53:54;97022.28;;;2.35;75.27
44697;BME280;57264;47.480;19.354;2023-12-22T06:56:27;97016.34;;;2.33;75.21
44697;BME280;57264;47.480;19.354;2023-12-22T06:58:55;97029.16;;;2.33;74.60
44697;BME280;57264;47.480;19.354;2023-12-22T07:01:31;97021.91;;;2.45;74.00
44697;BME280;57264;47.480;19.354;2023-12-22T07:03:57;97036.38;;;2.46;73.36
44697;BME280;57264;47.480;19.354;2023-12-22T07:06:23;97033.84;;;2.45;73.31
44697;BME280;57264;47.480;19.354;2023-12-22T07:11:36;97045.06;;;2.42;73.26
44697;BME280;57264;47.480;19.354;2023-12-22T07:14:02;97052.56;;;2.70;70.78
44697;BME280;57264;47.480;19.354;2023-12-22T07:16:28;97048.50;;;2.65;71.33
44697;BME280;57264;47.480;19.354;2023-12-22T07:18:53;97057.91;;;2.64;71.56
44697;BME280;57264;47.480;19.354;2023-12-22T07:21:19;97065.41;;;2.69;71.02
44697;BME280;57264;47.480;19.354;2023-12-22T07:23:45;97071.78;;;2.82;70.25
44697;BME280;57264;47.480;19.354;2023-12-22T07:26:11;97064.56;;;2.92;68.85
44697;BME280;57264;47.480;19.354;2023-12-22T07:28:37;97061.91;;;2.95;69.56
44697;BME280;57264;47.480;19.354;2023-12-22T07:31:03;97064.50;;;3.17;66.83
44697;BME280;57264;47.480;19.354;2023-12-22T07:33:28;97055.88;;;3.18;67.31
44697;BME280;57264;47.480;19.354;2023-12-22T07:35:54;97062.09;;;3.34;66.41
44697;BME280;57264;47.480;19.354;2023-12-22T07:38:20;97059.25;;;3.40;65.90
44697;BME280;57264;47.480;19.354;2023-12-22T07:40:45;97051.50;;;3.42;66.13
44697;BME280;57264;47.480;19.354;2023-12-22T07:43:11;97051.00;;;3.54;65.51
44697;BME280;57264;47.480;19.354;2023-12-22T07:45:36;97036.38;;;3.56;65.40
44697;BME280;57264;47.480;19.354;2023-12-22T07:48:03;97041.78;;;3.50;65.76
44697;BME280;57264;47.480;19.354;2023-12-22T07:50:29;97046.13;;;3.48;64.62
44697;BME280;57264;47.480;19.354;2023-12-22T07:52:54;97053.28;;;3.40;64.78
44697;BME280;57264;47.480;19.354;2023-12-22T07:55:20;97056.84;;;3.37;64.94
44697;BME280;57264;47.480;19.354;2023-12-22T07:57:45;97065.09;;;3.44;64.86
44697;BME280;57264;47.480;19.354;2023-12-22T08:00:11;97062.13;;;3.55;63.91
44697;BME280;57264;47.480;19.354;2023-12-22T08:02:37;97069.75;;;3.56;64.47
44697;BME280;57264;47.480;19.354;2023-12-22T08:05:03;97058.41;;;3.62;63.68
44697;BME280;57264;47.480;19.354;2023-12-22T08:07:29;97068.91;;;3.56;64.85
44697;BME280;57264;47.480;19.354;2023-12-22T08:09:55;97062.72;;;3.61;63.47
44697;BME280;57264;47.480;19.354;2023-12-22T08:12:21;97057.28;;;3.69;63.07
44697;BME280;57264;47.480;19.354;2023-12-22T08:14:47;97063.13;;;3.73;63.90
44697;BME280;57264;47.480;19.354;2023-12-22T08:17:12;97058.63;;;3.78;63.53
44697;BME280;57264;47.480;19.354;2023-12-22T08:19:39;97055.25;;;3.76;64.06
44697;BME280;57264;47.480;19.354;2023-12-22T08:22:09;97066.44;;;3.75;64.83
44697;BME280;57264;47.480;19.354;2023-12-22T08:24:35;97062.00;;;3.78;64.47
44697;BME280;57264;47.480;19.354;2023-12-22T08:27:00;97059.97;;;3.86;63.33
44697;BME280;57264;47.480;19.354;2023-12-22T08:29:26;97063.94;;;3.93;63.72
44697;BME280;57264;47.480;19.354;2023-12-22T08:31:51;97059.44;;;3.99;63.78
44697;BME280;57264;47.480;19.354;2023-12-22T08:34:17;97055.72;;;4.06;63.29
44697;BME280;57264;47.480;19.354;2023-12-22T08:36:43;97059.59;;;4.16;62.98
44697;BME280;57264;47.480;19.354;2023-12-22T08:39:08;97067.09;;;4.21;62.90
44697;BME280;57264;47.480;19.354;2023-12-22T08:41:34;97059.88;;;4.29;63.24
44697;BME280;57264;47.480;19.354;2023-12-22T08:44:05;97069.63;;;4.41;62.63
44697;BME280;57264;47.480;19.354;2023-12-22T08:46:31;97054.91;;;4.44;62.34
44697;BME280;57264;47.480;19.354;2023-12-22T08:48:57;97062.00;;;4.58;61.69
44697;BME280;57264;47.480;19.354;2023-12-22T08:51:27;97064.19;;;4.67;60.65
44697;BME280;57264;47.480;19.354;2023-12-22T08:53:54;97059.53;;;4.76;60.30
44697;BME280;57264;47.480;19.354;2023-12-22T08:56:21;97055.00;;;4.81;59.98
44697;BME280;57264;47.480;19.354;2023-12-22T08:58:47;97063.06;;;4.92;59.82
44697;BME280;57264;47.480;19.354;2023-12-22T09:01:16;97058.84;;;4.91;59.95
44697;BME280;57264;47.480;19.354;2023-12-22T09:03:41;97069.59;;;4.99;58.98
44697;BME280;57264;47.480;19.354;2023-12-22T09:06:19;97066.81;;;5.04;59.98
44697;BME280;57264;47.480;19.354;2023-12-22T09:08:45;97074.00;;;5.14;59.22
44697;BME280;57264;47.480;19.354;2023-12-22T09:11:13;97078.31;;;5.33;59.90
44697;BME280;57264;47.480;19.354;2023-12-22T09:13:40;97079.56;;;5.60;57.65
44697;BME280;57264;47.480;19.354;2023-12-22T09:16:07;97078.47;;;5.83;56.13
44697;BME280;57264;47.480;19.354;2023-12-22T09:18:32;97082.00;;;5.81;55.58
44697;BME280;57264;47.480;19.354;2023-12-22T09:20:59;97081.78;;;5.85;56.30
44697;BME280;57264;47.480;19.354;2023-12-22T09:23:24;97069.59;;;5.89;55.74
44697;BME280;57264;47.480;19.354;2023-12-22T09:25:50;97086.94;;;5.85;54.82
44697;BME280;57264;47.480;19.354;2023-12-22T09:28:15;97078.47;;;5.83;56.22
44697;BME280;57264;47.480;19.354;2023-12-22T09:30:41;97075.78;;;5.85;55.35
44697;BME280;57264;47.480;19.354;2023-12-22T09:33:08;97088.16;;;5.78;56.17
44697;BME280;57264;47.480;19.354;2023-12-22T09:35:37;97101.19;;;5.75;57.10
44697;BME280;57264;47.480;19.354;2023-12-22T09:38:05;97088.63;;;5.86;57.56
44697;BME280;57264;47.480;19.354;2023-12-22T09:40:31;97078.09;;;5.91;57.22
44697;BME280;57264;47.480;19.354;2023-12-22T09:42:57;97079.94;;;6.06;56.87
44697;BME280;57264;47.480;19.354;2023-12-22T09:45:24;97075.00;;;6.19;56.31
44697;BME280;57264;47.480;19.354;2023-12-22T09:47:50;97067.16;;;6.21;56.85
44697;BME280;57264;47.480;19.354;2023-12-22T09:50:17;97070.06;;;6.14;56.94
44697;BME280;57264;47.480;19.354;2023-12-22T09:52:43;97066.13;;;6.07;56.67
44697;BME280;57264;47.480;19.354;2023-12-22T09:55:13;97083.25;;;6.08;57.96
44697;BME280;57264;47.480;19.354;2023-12-22T09:57:39;97079.50;;;5.98;58.56
44697;BME280;57264;47.480;19.354;2023-12-22T10:00:09;97077.88;;;5.96;57.47
44697;BME280;57264;47.480;19.354;2023-12-22T10:02:38;97079.63;;;5.95;58.12
44697;BME280;57264;47.480;19.354;2023-12-22T10:05:04;97079.16;;;6.04;58.11
44697;BME280;57264;47.480;19.354;2023-12-22T10:07:30;97085.53;;;5.97;57.26
44697;BME280;57264;47.480;19.354;2023-12-22T10:10:00;97089.81;;;5.79;59.23
44697;BME280;57264;47.480;19.354;2023-12-22T10:12:27;97091.47;;;5.63;58.10
44697;BME280;57264;47.480;19.354;2023-12-22T10:14:56;97065.19;;;5.56;58.69
44697;BME280;57264;47.480;19.354;2023-12-22T10:17:23;97085.91;;;5.53;59.22
44697;BME280;57264;47.480;19.354;2023-12-22T10:19:48;97078.28;;;5.52;59.13
44697;BME280;57264;47.480;19.354;2023-12-22T10:22:14;97064.81;;;5.47;60.64
44697;BME280;57264;47.480;19.354;2023-12-22T10:24:44;97074.53;;;5.40;60.04
44697;BME280;57264;47.480;19.354;2023-12-22T10:27:13;97085.13;;;5.34;60.58
44697;BME280;57264;47.480;19.354;2023-12-22T10:29:39;97067.78;;;5.37;61.30
44697;BME280;57264;47.480;19.354;2023-12-22T10:32:06;97073.72;;;5.39;61.30
44697;BME280;57264;47.480;19.354;2023-12-22T10:34:32;97067.38;;;5.47;60.82
44697;BME280;57264;47.480;19.354;2023-12-22T10:37:01;97048.91;;;5.56;61.05
44697;BME280;57264;47.480;19.354;2023-12-22T10:39:31;97042.47;;;5.64;60.48
44697;BME280;57264;47.480;19.354;2023-12-22T10:41:57;97048.84;;;5.75;59.67
44697;BME280;57264;47.480;19.354;2023-12-22T10:44:24;97038.69;;;5.72;59.25
44697;BME280;57264;47.480;19.354;2023-12-22T10:46:51;97037.91;;;5.70;58.42
44697;BME280;57264;47.480;19.354;2023-12-22T10:49:17;97040.19;;;5.76;58.95
44697;BME280;57264;47.480;19.354;2023-12-22T10:51:42;97020.34;;;5.95;58.52
44697;BME280;57264;47.480;19.354;2023-12-22T10:54:08;97016.78;;;5.98;59.28
44697;BME280;57264;47.480;19.354;2023-12-22T10:56:34;97018.38;;;6.00;57.92
44697;BME280;57264;47.480;19.354;2023-12-22T10:59:00;97005.72;;;5.96;58.46
44697;BME280;57264;47.480;19.354;2023-12-22T11:01:30;97017.16;;;5.90;58.15
44697;BME280;57264;47.480;19.354;2023-12-22T11:04:00;97023.09;;;5.92;58.49
44697;BME280;57264;47.480;19.354;2023-12-22T11:06:27;97019.28;;;5.99;58.68
44697;BME280;57264;47.480;19.354;2023-12-22T11:08:56;97019.00;;;6.21;58.19
44697;BME280;57264;47.480;19.354;2023-12-22T11:11:33;97038.13;;;6.34;57.47
44697;BME280;57264;47.480;19.354;2023-12-22T11:14:00;97030.84;;;6.58;58.42
44697;BME280;57264;47.480;19.354;2023-12-22T11:16:28;97026.34;;;6.62;57.78
44697;BME280;57264;47.480;19.354;2023-12-22T11:18:55;97025.84;;;6.55;58.72
44697;BME280;57264;47.480;19.354;2023-12-22T11:21:24;97020.38;;;6.28;57.55
44697;BME280;57264;47.480;19.354;2023-12-22T11:23:53;97010.44;;;6.21;57.57
44697;BME280;57264;47.480;19.354;2023-12-22T11:26:21;97018.50;;;6.14;57.44
44697;BME280;57264;47.480;19.354;2023-12-22T11:28:48;97006.75;;;6.26;58.50
44697;BME280;57264;47.480;19.354;2023-12-22T11:31:14;96988.44;;;6.31;57.23
44697;BME280;57264;47.480;19.354;2023-12-22T11:33:48;97001.41;;;6.29;56.11
44697;BME280;57264;47.480;19.354;2023-12-22T11:36:15;96986.88;;;6.60;56.76
44697;BME280;57264;47.480;19.354;2023-12-22T11:38:41;97006.88;;;6.88;55.61
44697;BME280;57264;47.480;19.354;2023-12-22T11:41:21;97016.53;;;6.84;56.34
44697;BME280;57264;47.480;19.354;2023-12-22T11:43:48;97018.66;;;6.60;55.89
44697;BME280;57264;47.480;19.354;2023-12-22T11:46:18;97015.75;;;6.18;55.93
44697;BME280;57264;47.480;19.354;2023-12-22T11:48:51;97019.78;;;5.88;57.22
44697;BME280;57264;47.480;19.354;2023-12-22T11:51:17;97010.47;;;5.86;58.95
44697;BME280;57264;47.480;19.354;2023-12-22T11:53:44;97003.59;;;5.69;59.82
44697;BME280;57264;47.480;19.354;2023-12-22T11:56:11;97017.63;;;5.63;59.43
44697;BME280;57264;47.480;19.354;2023-12-22T11:58:46;97008.97;;;5.64;58.16
44697;BME280;57264;47.480;19.354;2023-12-22T12:01:18;97046.31;;;5.56;58.95
44697;BME280;57264;47.480;19.354;2023-12-22T12:06:23;97024.72;;;5.76;57.13
44697;BME280;57264;47.480;19.354;2023-12-22T12:08:56;97034.56;;;5.85;56.47
44697;BME280;57264;47.480;19.354;2023-12-22T12:11:22;97011.16;;;5.89;55.76
44697;BME280;57264;47.480;19.354;2023-12-22T12:13:50;97048.38;;;6.01;55.47
44697;BME280;57264;47.480;19.354;2023-12-22T12:16:19;97025.72;;;6.08;55.79
44697;BME280;57264;47.480;19.354;2023-12-22T12:18:47;97035.59;;;6.33;56.68
44697;BME280;57264;47.480;19.354;2023-12-22T12:21:13;97024.31;;;6.35;54.52
44697;BME280;57264;47.480;19.354;2023-12-22T12:23:41;97032.03;;;6.35;54.15
44697;BME280;57264;47.480;19.354;2023-12-22T12:26:07;97020.38;;;6.61;54.71
44697;BME280;57264;47.480;19.354;2023-12-22T12:28:34;97038.91;;;6.19;54.58
44697;BME280;57264;47.480;19.354;2023-12-22T12:31:08;97030.78;;;6.27;54.83
44697;BME280;57264;47.480;19.354;2023-12-22T12:33:35;97030.28;;;6.36;54.78
44697;BME280;57264;47.480;19.354;2023-12-22T12:36:02;97037.25;;;6.18;55.87
44697;BME280;57264;47.480;19.354;2023-12-22T12:38:48;97024.56;;;6.13;56.22
44697;BME280;57264;47.480;19.354;2023-12-22T12:41:28;97029.38;;;6.04;55.17
44697;BME280;57264;47.480;19.354;2023-12-22T12:43:54;97023.44;;;6.02;56.14
44697;BME280;57264;47.480;19.354;2023-12-22T12:46:21;97018.53;;;5.97;55.29
44697;BME280;57264;47.480;19.354;2023-12-22T12:48:47;97013.47;;;5.96;56.48
44697;BME280;57264;47.480;19.354;2023-12-22T12:51:13;97004.94;;;6.44;57.30
44697;BME280;57264;47.480;19.354;2023-12-22T12:53:38;97015.94;;;6.63;56.52
44697;BME280;57264;47.480;19.354;2023-12-22T12:56:04;97002.03;;;6.50;57.04
44697;BME280;57264;47.480;19.354;2023-12-22T12:58:31;97007.66;;;6.41;56.95
44697;BME280;57264;47.480;19.354;2023-12-22T13:01:07;97019.41;;;6.13;59.20
44697;BME280;57264;47.480;19.354;2023-12-22T13:03:44;97017.22;;;5.88;60.10
44697;BME280;57264;47.480;19.354;2023-12-22T13:06:16;97051.84;;;5.48;61.79
44697;BME280;57264;47.480;19.354;2023-12-22T13:08:50;97100.59;;;5.15;63.11